createdAt,value
2022-11-18T00:01:32.639Z,10.78
2022-11-18T00:04:01.097Z,10.78
2022-11-18T00:06:31.394Z,10.77
2022-11-18T00:09:01.381Z,10.77
2022-11-18T00:11:47.882Z,10.78
2022-11-18T00:14:23.072Z,10.75
2022-11-18T00:16:55.135Z,10.75
2022-11-18T00:19:25.889Z,10.74
2022-11-18T00:21:54.511Z,10.75
2022-11-18T00:24:23.313Z,10.76
2022-11-18T00:26:51.663Z,10.77
2022-11-18T00:29:21.755Z,10.79
2022-11-18T00:31:50.861Z,10.79
2022-11-18T00:34:20.079Z,10.77
2022-11-18T00:36:49.657Z,10.80
2022-11-18T00:39:20.366Z,10.79
2022-11-18T00:42:06.563Z,10.80
2022-11-18T00:44:36.958Z,10.80
2022-11-18T00:47:06.212Z,10.80
2022-11-18T00:49:34.632Z,10.80
2022-11-18T00:52:02.959Z,10.82
2022-11-18T00:54:31.499Z,10.82
2022-11-18T00:57:00.037Z,10.84
2022-11-18T00:59:28.320Z,10.84
2022-11-18T01:01:57.948Z,10.84
2022-11-18T01:04:26.247Z,10.84
2022-11-18T01:06:54.621Z,10.84
2022-11-18T01:09:22.995Z,10.84
2022-11-18T01:12:08.975Z,10.84
2022-11-18T01:14:37.309Z,10.83
2022-11-18T01:17:07.005Z,10.83
2022-11-18T01:19:35.356Z,10.83
2022-11-18T01:22:04.015Z,10.83
2022-11-18T01:24:32.606Z,10.83
2022-11-18T01:27:02.180Z,10.84
2022-11-18T01:29:31.064Z,10.84
2022-11-18T01:32:23.365Z,10.84
2022-11-18T01:34:49.081Z,10.83
2022-11-18T01:37:17.316Z,10.84
2022-11-18T01:39:45.613Z,10.84
2022-11-18T01:42:17.534Z,10.81
2022-11-18T01:45:05.136Z,10.78
2022-11-18T01:47:39.906Z,10.77
2022-11-18T01:50:11.123Z,10.75
2022-11-18T01:52:40.765Z,10.76
2022-11-18T01:55:15.731Z,10.74
2022-11-18T01:57:45.502Z,10.76
2022-11-18T02:00:15.473Z,10.76
2022-11-18T02:02:43.819Z,10.77
2022-11-18T02:05:13.690Z,10.78
2022-11-18T02:07:44.624Z,10.75
2022-11-18T02:10:22.497Z,10.76
2022-11-18T02:12:52.839Z,10.75
2022-11-18T02:15:33.303Z,10.76
2022-11-18T02:18:12.617Z,10.80
2022-11-18T02:20:44.893Z,10.83
2022-11-18T02:24:03.137Z,10.82
2022-11-18T02:27:17.972Z,10.82
2022-11-18T02:29:55.862Z,10.82
2022-11-18T02:32:30.898Z,10.84
2022-11-18T02:35:08.179Z,10.85
2022-11-18T02:37:43.807Z,10.87
2022-11-18T02:40:19.646Z,10.89
2022-11-18T02:42:53.326Z,10.90
2022-11-18T02:45:23.857Z,10.93
2022-11-18T02:47:53.526Z,10.96
2022-11-18T02:50:27.002Z,10.96
2022-11-18T02:53:01.126Z,10.97
2022-11-18T02:55:34.250Z,10.99
2022-11-18T02:58:04.721Z,11.01
2022-11-18T03:00:35.418Z,11.02
2022-11-18T03:03:28.142Z,11.02
2022-11-18T03:06:08.065Z,11.03
2022-11-18T03:08:41.531Z,11.05
2022-11-18T03:11:16.634Z,11.05
2022-11-18T03:14:05.040Z,11.04
2022-11-18T03:16:40.563Z,11.06
2022-11-18T03:19:20.019Z,11.06
2022-11-18T03:22:03.144Z,11.06
2022-11-18T03:24:34.951Z,11.08
2022-11-18T03:27:13.890Z,11.10
2022-11-18T03:29:48.402Z,11.12
2022-11-18T03:32:22.726Z,11.12
2022-11-18T03:34:56.598Z,11.13
2022-11-18T03:37:27.611Z,11.14
2022-11-18T03:40:01.003Z,11.16
2022-11-18T03:42:34.144Z,11.17
2022-11-18T03:45:06.519Z,11.18
2022-11-18T03:47:41.586Z,11.20
2022-11-18T03:50:17.344Z,11.22
2022-11-18T03:52:47.360Z,11.22
2022-11-18T03:55:19.830Z,11.23
2022-11-18T03:57:53.191Z,11.24
2022-11-18T04:00:21.889Z,11.25
2022-11-18T04:02:52.031Z,11.26
2022-11-18T04:05:20.924Z,11.27
2022-11-18T04:07:58.241Z,11.28
2022-11-18T04:10:32.120Z,11.30
2022-11-18T04:13:06.938Z,11.31
2022-11-18T04:15:39.546Z,11.32
2022-11-18T04:18:10.466Z,11.34
2022-11-18T04:20:39.415Z,11.35
2022-11-18T04:23:09.067Z,11.37
2022-11-18T04:25:37.725Z,11.37
2022-11-18T04:28:06.760Z,11.39
2022-11-18T04:30:35.642Z,11.40
2022-11-18T04:33:04.076Z,11.41
2022-11-18T04:35:33.725Z,11.42
2022-11-18T04:38:02.052Z,11.42
2022-11-18T04:40:30.281Z,11.43
2022-11-18T04:42:58.530Z,11.45
2022-11-18T04:45:26.796Z,11.45
2022-11-18T04:48:00.284Z,11.45
2022-11-18T04:50:32.849Z,11.45
2022-11-18T04:53:01.088Z,11.45
2022-11-18T04:55:29.328Z,11.45
2022-11-18T04:57:57.638Z,11.46
2022-11-18T05:00:25.926Z,11.47
2022-11-18T05:02:54.186Z,11.47
2022-11-18T05:05:22.463Z,11.48
2022-11-18T05:07:52.439Z,11.49
2022-11-18T05:10:20.805Z,11.50
2022-11-18T05:12:50.924Z,11.50
2022-11-18T05:15:21.922Z,11.50
2022-11-18T05:17:50.154Z,11.51
2022-11-18T05:20:18.675Z,11.54
2022-11-18T05:22:46.949Z,11.53
2022-11-18T05:25:16.689Z,11.53
2022-11-18T05:27:44.950Z,11.54
2022-11-18T05:30:15.225Z,11.55
2022-11-18T05:32:43.528Z,11.54
2022-11-18T05:35:11.735Z,11.54
2022-11-18T05:37:39.956Z,11.54
2022-11-18T05:40:10.618Z,11.54
2022-11-18T05:42:57.589Z,11.56
2022-11-18T05:45:25.814Z,11.55
2022-11-18T05:48:04.626Z,11.55
2022-11-18T05:50:34.856Z,11.54
2022-11-18T05:53:03.785Z,11.53
2022-11-18T05:55:39.783Z,11.54
2022-11-18T05:58:09.379Z,11.54
2022-11-18T06:00:38.071Z,11.56
2022-11-18T06:03:13.991Z,11.56
2022-11-18T06:05:42.452Z,11.57
2022-11-18T06:08:12.121Z,11.56
2022-11-18T06:10:43.791Z,11.57
2022-11-18T06:13:19.588Z,11.56
2022-11-18T06:15:48.404Z,11.56
2022-11-18T06:18:23.899Z,11.56
2022-11-18T06:20:55.401Z,11.56
2022-11-18T06:23:24.207Z,11.56
2022-11-18T06:25:52.804Z,11.59
2022-11-18T06:28:23.943Z,11.59
2022-11-18T06:30:52.177Z,11.60
2022-11-18T06:33:20.413Z,11.60
2022-11-18T06:35:48.668Z,11.62
2022-11-18T06:38:16.955Z,11.64
2022-11-18T06:40:45.336Z,11.64
2022-11-18T06:43:31.553Z,11.65
2022-11-18T06:46:19.462Z,11.63
2022-11-18T06:48:48.161Z,11.61
2022-11-18T06:51:16.476Z,11.62
2022-11-18T06:53:45.086Z,11.62
2022-11-18T06:56:16.147Z,11.62
2022-11-18T06:58:44.644Z,11.64
2022-11-18T07:01:16.613Z,11.65
2022-11-18T07:03:47.184Z,11.63
2022-11-18T07:06:18.030Z,11.65
2022-11-18T07:08:46.755Z,11.65
2022-11-18T07:11:17.995Z,11.67
2022-11-18T07:13:46.954Z,11.68
2022-11-18T07:16:19.466Z,11.67
2022-11-18T07:18:49.885Z,11.68
2022-11-18T07:21:20.683Z,11.67
2022-11-18T07:23:49.523Z,11.68
2022-11-18T07:26:18.511Z,11.69
2022-11-18T07:28:46.788Z,11.70
2022-11-18T07:31:19.206Z,11.71
2022-11-18T07:33:48.489Z,11.73
2022-11-18T07:36:20.377Z,11.76
2022-11-18T07:38:49.308Z,11.77
2022-11-18T07:41:20.376Z,11.78
2022-11-18T07:43:50.369Z,11.80
2022-11-18T07:46:22.240Z,11.81
2022-11-18T07:48:53.156Z,11.82
2022-11-18T07:51:24.462Z,11.84
2022-11-18T07:53:52.897Z,11.85
2022-11-18T07:56:22.228Z,11.87
2022-11-18T07:58:54.432Z,11.87
2022-11-18T08:01:27.648Z,11.87
2022-11-18T08:03:56.489Z,11.89
2022-11-18T08:06:25.262Z,11.88
2022-11-18T08:08:54.268Z,11.88
2022-11-18T08:11:23.218Z,11.93
2022-11-18T08:13:51.538Z,11.91
2022-11-18T08:16:22.119Z,11.94
2022-11-18T08:18:52.659Z,11.94
2022-11-18T08:21:23.371Z,11.97
2022-11-18T08:23:53.424Z,11.98
2022-11-18T08:26:22.449Z,11.99
2022-11-18T08:28:51.105Z,12.01
2022-11-18T08:31:22.361Z,12.02
2022-11-18T08:33:57.006Z,12.00
2022-11-18T08:36:28.563Z,12.02
2022-11-18T08:38:57.607Z,12.03
2022-11-18T08:41:32.711Z,12.05
2022-11-18T08:44:01.081Z,12.04
2022-11-18T08:46:29.475Z,12.03
2022-11-18T08:48:59.998Z,12.03
2022-11-18T08:51:28.766Z,12.02
2022-11-18T08:53:57.403Z,12.02
2022-11-18T08:56:26.949Z,12.01
2022-11-18T08:58:56.244Z,11.99
2022-11-18T09:01:24.900Z,11.96
2022-11-18T09:03:53.195Z,11.93
2022-11-18T09:06:24.840Z,11.85
2022-11-18T09:08:53.864Z,11.83
2022-11-18T09:11:24.609Z,11.81
2022-11-18T09:16:44.510Z,11.78
2022-11-18T09:22:02.712Z,11.77
2022-11-18T09:24:31.160Z,11.79
2022-11-18T09:26:59.584Z,11.81
2022-11-18T09:29:27.797Z,11.83
2022-11-18T09:31:56.532Z,11.82
2022-11-18T09:34:25.109Z,11.84
2022-11-18T09:36:55.939Z,11.83
2022-11-18T09:39:26.032Z,11.84
2022-11-18T09:42:06.077Z,11.84
2022-11-18T09:45:02.000Z,11.84
2022-11-18T09:47:32.680Z,11.81
2022-11-18T09:50:26.768Z,11.79
2022-11-18T09:53:08.106Z,11.78
2022-11-18T09:55:39.900Z,11.76
2022-11-18T09:58:13.008Z,11.77
2022-11-18T10:00:44.728Z,11.75
2022-11-18T10:03:22.072Z,11.72
2022-11-18T10:05:58.401Z,11.74
2022-11-18T10:08:33.278Z,11.71
2022-11-18T10:11:09.640Z,11.71
2022-11-18T10:13:52.559Z,11.70
2022-11-18T10:16:36.804Z,11.69
2022-11-18T10:19:21.578Z,11.68
2022-11-18T10:22:01.830Z,11.67
2022-11-18T10:24:38.366Z,11.69
2022-11-18T10:27:12.472Z,11.67
2022-11-18T10:29:40.824Z,11.69
2022-11-18T10:32:13.935Z,11.72
2022-11-18T10:34:50.877Z,11.73
2022-11-18T10:37:45.798Z,11.74
2022-11-18T10:40:28.272Z,11.74
2022-11-18T10:42:58.283Z,11.75
2022-11-18T10:45:30.128Z,11.78
2022-11-18T10:48:08.902Z,11.78
2022-11-18T10:50:39.680Z,11.79
2022-11-18T10:53:31.022Z,11.79
2022-11-18T10:56:01.018Z,11.81
2022-11-18T10:58:33.520Z,11.84
2022-11-18T11:01:07.873Z,11.81
2022-11-18T11:03:39.195Z,11.84
2022-11-18T11:06:33.274Z,11.82
2022-11-18T11:09:07.099Z,11.81
2022-11-18T11:11:39.971Z,11.78
2022-11-18T11:14:24.088Z,11.80
2022-11-18T11:17:01.582Z,11.79
2022-11-18T11:19:40.168Z,11.77
2022-11-18T11:22:12.404Z,11.79
2022-11-18T11:24:41.345Z,11.79
2022-11-18T11:30:23.157Z,11.76
2022-11-18T11:33:28.304Z,11.76
2022-11-18T11:36:13.839Z,11.77
2022-11-18T11:39:01.298Z,11.76
2022-11-18T11:41:42.171Z,11.77
2022-11-18T11:44:40.576Z,11.74
2022-11-18T11:47:42.187Z,11.77
2022-11-18T11:50:19.795Z,11.76
2022-11-18T11:53:04.208Z,11.75
2022-11-18T11:55:45.777Z,11.76
2022-11-18T11:58:30.974Z,11.79
2022-11-18T12:01:06.944Z,11.77
2022-11-18T12:03:51.730Z,11.75
2022-11-18T12:06:20.784Z,11.78
2022-11-18T12:09:06.455Z,11.78
2022-11-18T12:11:42.081Z,11.77
2022-11-18T12:14:19.673Z,11.78
2022-11-18T12:16:54.924Z,11.78
2022-11-18T12:19:25.383Z,11.77
2022-11-18T12:22:00.540Z,11.71
2022-11-18T12:24:36.472Z,11.64
2022-11-18T12:27:12.272Z,11.66
2022-11-18T12:29:54.277Z,11.67
2022-11-18T12:32:36.338Z,11.65
2022-11-18T12:35:26.717Z,11.65
2022-11-18T12:38:03.580Z,11.63
2022-11-18T12:40:50.641Z,11.62
2022-11-18T12:44:05.757Z,11.59
2022-11-18T12:46:55.135Z,11.57
2022-11-18T12:50:14.401Z,11.54
2022-11-18T12:52:53.808Z,11.56
2022-11-18T12:55:33.248Z,11.57
2022-11-18T12:58:02.120Z,11.59
2022-11-18T13:00:52.251Z,11.59
2022-11-18T13:03:31.541Z,11.61
2022-11-18T13:06:19.991Z,11.63
2022-11-18T13:08:55.045Z,11.63
2022-11-18T13:11:41.605Z,11.67
2022-11-18T13:14:35.381Z,11.67
2022-11-18T13:17:22.396Z,11.68
2022-11-18T13:19:59.867Z,11.68
2022-11-18T13:22:46.816Z,11.66
2022-11-18T13:25:26.185Z,11.65
2022-11-18T13:28:04.102Z,11.65
2022-11-18T13:30:35.050Z,11.67
2022-11-18T13:33:03.521Z,11.69
2022-11-18T13:35:31.976Z,11.66
2022-11-18T13:38:03.332Z,11.66
2022-11-18T13:40:40.435Z,11.65
2022-11-18T13:43:12.336Z,11.62
2022-11-18T13:45:41.498Z,11.63
2022-11-18T13:48:14.053Z,11.62
2022-11-18T13:50:46.731Z,11.60
2022-11-18T13:53:30.555Z,11.57
2022-11-18T13:56:02.806Z,11.56
2022-11-18T13:59:02.622Z,11.56
2022-11-18T14:01:28.919Z,11.55
2022-11-18T14:03:59.884Z,11.56
2022-11-18T14:06:30.816Z,11.55
2022-11-18T14:09:22.431Z,11.56
2022-11-18T14:12:02.267Z,11.56
2022-11-18T14:14:33.915Z,11.57
2022-11-18T14:17:17.236Z,11.55
2022-11-18T14:19:46.719Z,11.55
2022-11-18T14:22:18.684Z,11.51
2022-11-18T14:24:56.526Z,11.51
2022-11-18T14:27:39.793Z,11.51
2022-11-18T14:30:36.925Z,11.49
2022-11-18T14:33:21.736Z,11.47
2022-11-18T14:35:53.448Z,11.50
2022-11-18T14:41:42.454Z,11.50
2022-11-18T14:44:13.348Z,11.49
2022-11-18T14:46:43.997Z,11.46
2022-11-18T14:49:16.616Z,11.46
2022-11-18T14:51:46.182Z,11.46
2022-11-18T14:54:20.730Z,11.44
2022-11-18T14:56:57.111Z,11.43
2022-11-18T14:59:26.732Z,11.43
2022-11-18T15:01:56.570Z,11.43
2022-11-18T15:04:26.095Z,11.42
2022-11-18T15:06:54.579Z,11.42
2022-11-18T15:09:22.923Z,11.40
2022-11-18T15:11:51.178Z,11.40
2022-11-18T15:14:21.240Z,11.39
2022-11-18T15:16:49.755Z,11.35
2022-11-18T15:19:18.400Z,11.35
2022-11-18T15:21:46.803Z,11.33
2022-11-18T15:24:15.706Z,11.33
2022-11-18T15:26:46.112Z,11.30
2022-11-18T15:29:18.785Z,11.30
2022-11-18T15:31:48.935Z,11.29
2022-11-18T15:34:21.289Z,11.30
2022-11-18T15:36:50.461Z,11.28
2022-11-18T15:39:18.926Z,11.28
2022-11-18T15:41:47.207Z,11.29
2022-11-18T15:44:16.148Z,11.29
2022-11-18T15:46:45.445Z,11.22
2022-11-18T15:49:17.628Z,11.23
2022-11-18T15:51:46.047Z,11.24
2022-11-18T15:54:14.290Z,11.23
2022-11-18T15:56:42.653Z,11.22
2022-11-18T15:59:13.180Z,11.22
2022-11-18T16:01:44.184Z,11.22
2022-11-18T16:04:16.448Z,11.21
2022-11-18T16:06:45.164Z,11.21
2022-11-18T16:09:14.950Z,11.22
2022-11-18T16:12:01.206Z,11.21
2022-11-18T16:14:29.796Z,11.16
2022-11-18T16:16:58.580Z,11.15
2022-11-18T16:19:33.241Z,11.17
2022-11-18T16:22:01.655Z,11.15
2022-11-18T16:24:31.434Z,11.14
2022-11-18T16:26:59.740Z,11.14
2022-11-18T16:29:28.091Z,11.11
2022-11-18T16:31:56.388Z,11.11
2022-11-18T16:34:28.507Z,11.10
2022-11-18T16:36:59.712Z,11.10
2022-11-18T16:39:29.465Z,11.08
2022-11-18T16:42:07.423Z,11.09
2022-11-18T16:44:37.603Z,11.08
2022-11-18T16:47:13.872Z,11.08
2022-11-18T16:49:44.432Z,11.08
2022-11-18T16:52:12.774Z,11.08
2022-11-18T16:54:45.382Z,11.06
2022-11-18T16:57:15.272Z,11.08
2022-11-18T16:59:43.632Z,11.08
2022-11-18T17:02:13.953Z,11.08
2022-11-18T17:04:43.910Z,11.07
2022-11-18T17:07:12.421Z,11.02
2022-11-18T17:09:40.875Z,11.00
2022-11-18T17:12:09.558Z,11.04
2022-11-18T17:14:38.574Z,11.03
2022-11-18T17:17:07.518Z,11.00
2022-11-18T17:19:35.870Z,11.02
2022-11-18T17:22:05.690Z,11.00
2022-11-18T17:24:34.004Z,11.01
2022-11-18T17:27:02.405Z,11.01
2022-11-18T17:29:30.737Z,10.99
2022-11-18T17:31:59.761Z,11.00
2022-11-18T17:34:28.102Z,11.02
2022-11-18T17:37:00.199Z,11.02
2022-11-18T17:39:33.071Z,11.03
2022-11-18T17:42:17.876Z,11.04
2022-11-18T17:44:46.721Z,11.03
2022-11-18T17:47:15.073Z,11.05
2022-11-18T17:49:43.476Z,11.05
2022-11-18T17:52:11.820Z,11.02
2022-11-18T17:54:41.564Z,11.02
2022-11-18T17:57:09.877Z,11.02
2022-11-18T17:59:38.169Z,11.02
2022-11-18T18:02:06.629Z,10.99
2022-11-18T18:04:35.031Z,10.99
2022-11-18T18:07:03.401Z,10.99
2022-11-18T18:09:31.772Z,10.98
2022-11-18T18:12:22.056Z,10.99
2022-11-18T18:14:49.767Z,10.96
2022-11-18T18:17:18.538Z,10.92
2022-11-18T18:19:46.851Z,10.90
2022-11-18T18:22:15.180Z,10.94
2022-11-18T18:24:43.564Z,10.93
2022-11-18T18:27:13.309Z,10.95
2022-11-18T18:29:41.594Z,10.95
2022-11-18T18:32:09.983Z,10.97
2022-11-18T18:34:38.304Z,10.97
2022-11-18T18:37:06.687Z,10.98
2022-11-18T18:39:34.973Z,10.98
2022-11-18T18:42:03.799Z,10.98
2022-11-18T18:44:47.461Z,10.99
2022-11-18T18:47:15.854Z,10.98
2022-11-18T18:49:44.190Z,10.97
2022-11-18T18:52:12.580Z,10.93
2022-11-18T18:54:41.006Z,10.97
2022-11-18T18:57:09.401Z,10.96
2022-11-18T18:59:39.179Z,10.97
2022-11-18T19:02:07.491Z,10.96
2022-11-18T19:04:36.005Z,10.95
2022-11-18T19:07:04.411Z,10.96
2022-11-18T19:09:36.839Z,10.93
2022-11-18T19:12:23.927Z,10.89
2022-11-18T19:14:53.655Z,10.90
2022-11-18T19:17:21.984Z,10.90
2022-11-18T19:20:07.566Z,10.91
2022-11-18T19:22:36.389Z,10.92
2022-11-18T19:25:05.059Z,10.93
2022-11-18T19:27:33.936Z,10.94
2022-11-18T19:30:03.652Z,10.93
2022-11-18T19:32:32.067Z,10.89
2022-11-18T19:35:00.412Z,10.89
2022-11-18T19:37:28.727Z,10.89
2022-11-18T19:39:58.845Z,10.90
2022-11-18T19:42:27.137Z,10.91
2022-11-18T19:44:55.566Z,10.92
2022-11-18T19:47:25.505Z,10.90
2022-11-18T19:49:53.785Z,10.92
2022-11-18T19:52:22.102Z,10.91
2022-11-18T19:54:50.423Z,10.91
2022-11-18T19:57:18.667Z,10.91
2022-11-18T19:59:47.019Z,10.89
2022-11-18T20:02:15.396Z,10.88
2022-11-18T20:05:05.544Z,10.87
2022-11-18T20:07:34.733Z,10.84
2022-11-18T20:10:03.175Z,10.82
2022-11-18T20:12:31.471Z,10.77
2022-11-18T20:14:59.784Z,10.75
2022-11-18T20:17:28.135Z,10.75
2022-11-18T20:19:57.798Z,10.72
2022-11-18T20:22:26.294Z,10.72
2022-11-18T20:24:54.854Z,10.69
2022-11-18T20:27:23.200Z,10.71
2022-11-18T20:29:51.506Z,10.71
2022-11-18T20:32:19.842Z,10.72
2022-11-18T20:34:48.230Z,10.69
2022-11-18T20:37:18.904Z,10.68
2022-11-18T20:39:47.176Z,10.68
2022-11-18T20:42:32.824Z,10.67
2022-11-18T20:45:01.114Z,10.65
2022-11-18T20:47:29.449Z,10.63
2022-11-18T20:49:59.339Z,10.64
2022-11-18T20:52:29.010Z,10.66
2022-11-18T20:55:04.110Z,10.65
2022-11-18T20:57:33.902Z,10.66
2022-11-18T21:00:02.156Z,10.65
2022-11-18T21:02:31.534Z,10.66
2022-11-18T21:04:59.840Z,10.64
2022-11-18T21:07:29.732Z,10.65
2022-11-18T21:09:58.393Z,10.65
2022-11-18T21:12:26.834Z,10.67
2022-11-18T21:14:54.147Z,10.67
2022-11-18T21:17:22.460Z,10.69
2022-11-18T21:19:50.790Z,10.68
2022-11-18T21:22:18.181Z,10.68
2022-11-18T21:24:48.102Z,10.67
2022-11-18T21:27:16.616Z,10.67
2022-11-18T21:29:46.816Z,10.67
2022-11-18T21:32:15.181Z,10.66
2022-11-18T21:34:43.553Z,10.64
2022-11-18T21:37:11.927Z,10.62
2022-11-18T21:39:40.413Z,10.59
2022-11-18T21:42:10.288Z,10.58
2022-11-18T21:44:38.667Z,10.57
2022-11-18T21:47:07.096Z,10.55
2022-11-18T21:49:35.473Z,10.54
2022-11-18T21:52:03.877Z,10.54
2022-11-18T21:54:32.354Z,10.52
2022-11-18T21:57:00.631Z,10.52
2022-11-18T21:59:30.263Z,10.49
2022-11-18T22:01:58.598Z,10.48
2022-11-18T22:04:44.612Z,10.48
2022-11-18T22:07:12.993Z,10.45
2022-11-18T22:09:41.342Z,10.44
2022-11-18T22:12:09.860Z,10.45
2022-11-18T22:14:39.609Z,10.44
2022-11-18T22:17:08.794Z,10.43
2022-11-18T22:19:37.164Z,10.44
2022-11-18T22:22:05.511Z,10.44
2022-11-18T22:24:33.834Z,10.46
2022-11-18T22:27:04.675Z,10.46
2022-11-18T22:29:35.327Z,10.46
2022-11-18T22:32:05.482Z,10.45
2022-11-18T22:34:33.824Z,10.48
2022-11-18T22:37:02.103Z,10.48
2022-11-18T22:39:30.395Z,10.45
2022-11-18T22:42:16.215Z,10.46
2022-11-18T22:44:44.469Z,10.39
2022-11-18T22:47:14.167Z,10.44
2022-11-18T22:49:42.456Z,10.45
2022-11-18T22:52:10.808Z,10.47
2022-11-18T22:54:40.016Z,10.50
2022-11-18T22:57:08.887Z,10.50
2022-11-18T22:59:37.302Z,10.52
2022-11-18T23:02:05.973Z,10.52
2022-11-18T23:04:35.884Z,10.53
2022-11-18T23:07:04.554Z,10.53
2022-11-18T23:09:32.898Z,10.54
2022-11-18T23:12:18.552Z,10.53
2022-11-18T23:14:46.999Z,10.52
2022-11-18T23:17:16.097Z,10.53
2022-11-18T23:19:47.033Z,10.52
2022-11-18T23:22:15.647Z,10.53
2022-11-18T23:24:44.004Z,10.53
2022-11-18T23:27:12.371Z,10.53
2022-11-18T23:29:40.641Z,10.54
2022-11-18T23:32:08.921Z,10.53
2022-11-18T23:34:37.198Z,10.54
2022-11-18T23:37:06.818Z,10.54
2022-11-18T23:39:36.324Z,10.54
2022-11-18T23:42:05.199Z,10.53
2022-11-18T23:44:52.709Z,10.54
2022-11-18T23:47:21.012Z,10.52
2022-11-18T23:49:49.284Z,10.52
2022-11-18T23:52:19.028Z,10.52
2022-11-18T23:54:49.806Z,10.49
2022-11-18T23:57:18.169Z,10.49
2022-11-18T23:59:46.520Z,10.47
